Time;durP1;ratioP1;P1;durP2;ratioP2;P2;SDS_P1;SDS_P2;PMS_P1;PMS_P2;Temp;Humidity;BMP_temperature;BMP_pressure;BME280_temperature;BME280_humidity;BME280_pressure;Samples;Min_cycle;Max_cycle;Signal;HPM_P1;HPM_P2
2022/09/03 00:01:54;;;;;;;2.65;0.60;;;17.60;93.70;;;;;;5040835;28;20042;-78
2022/09/03 00:04:31;;;;;;;2.20;0.77;;;17.50;93.60;;;;;;5024464;28;20085;-78
2022/09/03 00:07:02;;;;;;;2.95;0.80;;;17.50;93.90;;;;;;5024669;28;20046;-78
2022/09/03 00:09:41;;;;;;;3.65;0.88;;;17.50;93.90;;;;;;5040744;28;20047;-78
2022/09/03 00:12:23;;;;;;;2.90;0.70;;;17.50;93.80;;;;;;5040815;28;20101;-79
2022/09/03 00:14:59;;;;;;;2.80;0.77;;;17.50;93.90;;;;;;5040697;28;20047;-79
2022/09/03 00:17:31;;;;;;;2.15;0.70;;;17.40;94.10;;;;;;5040316;28;20102;-79
2022/09/03 00:20:23;;;;;;;2.30;0.80;;;17.40;94.10;;;;;;5040595;28;20104;-78
2022/09/03 00:22:52;;;;;;;2.42;0.75;;;17.40;94.10;;;;;;5037242;28;20050;-79
2022/09/03 00:25:23;;;;;;;3.00;0.90;;;17.30;94.30;;;;;;5073788;28;20056;-79
2022/09/03 00:27:54;;;;;;;3.40;0.70;;;17.30;94.30;;;;;;5056918;28;20057;-79
2022/09/03 00:30:23;;;;;;;3.67;0.70;;;17.30;94.20;;;;;;5023897;28;20124;-79
2022/09/03 00:32:55;;;;;;;1.92;0.70;;;17.30;94.30;;;;;;5040465;28;20038;-79
2022/09/03 00:35:30;;;;;;;3.03;0.70;;;17.30;94.30;;;;;;5040369;28;20039;-79
2022/09/03 00:37:57;;;;;;;1.10;0.68;;;17.20;94.70;;;;;;5039844;28;20051;-79
2022/09/03 00:40:25;;;;;;;4.35;0.70;;;17.20;94.70;;;;;;5040129;28;20051;-79
2022/09/03 00:43:25;;;;;;;3.70;0.70;;;17.10;94.50;;;;;;5040034;28;20039;-79
2022/09/03 00:46:20;;;;;;;2.88;0.80;;;17.10;94.40;;;;;;5023047;28;20161;-79
2022/09/03 00:49:08;;;;;;;2.92;0.63;;;17.10;94.50;;;;;;5023434;28;20046;-79
2022/09/03 00:51:42;;;;;;;1.20;0.60;;;17.10;94.60;;;;;;5039703;28;20035;-78
2022/09/03 00:54:32;;;;;;;5.60;0.60;;;17.10;94.40;;;;;;5023376;28;20042;-79
2022/09/03 00:57:13;;;;;;;1.50;0.50;;;17.00;94.70;;;;;;5040209;28;20039;-79
2022/09/03 00:59:46;;;;;;;1.60;0.65;;;16.90;94.60;;;;;;5039919;28;20051;-79
2022/09/03 01:02:37;;;;;;;2.22;0.68;;;16.90;94.60;;;;;;5023171;28;20056;-79
2022/09/03 01:05:09;;;;;;;3.25;0.73;;;16.90;94.90;;;;;;5039901;28;20050;-79
2022/09/03 01:08:07;;;;;;;1.63;0.70;;;16.80;95.00;;;;;;5039649;28;20072;-79
2022/09/03 01:10:47;;;;;;;3.15;0.70;;;16.80;95.00;;;;;;5035823;28;20500;-79
2022/09/03 01:13:32;;;;;;;2.35;0.70;;;16.80;94.90;;;;;;5039491;28;20054;-79
2022/09/03 01:16:26;;;;;;;3.38;0.90;;;16.70;94.90;;;;;;5056028;28;20053;-79
2022/09/03 01:19:15;;;;;;;1.85;0.93;;;16.70;94.90;;;;;;5039379;28;20063;-79
2022/09/03 01:22:04;;;;;;;3.13;1.30;;;16.70;95.10;;;;;;5022766;28;20072;-79
2022/09/03 01:24:44;;;;;;;5.22;1.77;;;16.60;94.90;;;;;;5039606;28;20084;-79
2022/09/03 01:27:45;;;;;;;5.32;2.10;;;16.60;95.00;;;;;;5039345;28;20046;-79
2022/09/03 01:30:17;;;;;;;6.88;2.60;;;16.50;95.10;;;;;;5039550;28;20049;-78
2022/09/03 01:33:08;;;;;;;5.05;2.75;;;16.50;95.00;;;;;;5039120;28;20043;-78
2022/09/03 01:36:10;;;;;;;5.45;3.05;;;16.50;95.10;;;;;;5056052;28;20081;-78
2022/09/03 01:38:57;;;;;;;5.90;2.90;;;16.50;95.10;;;;;;5039146;28;20043;-80
2022/09/03 01:44:42;;;;;;;5.60;1.60;;;16.40;95.30;;;;;;5039505;28;20413;-79
2022/09/03 01:47:29;;;;;;;5.30;1.50;;;16.30;95.20;;;;;;5072603;28;20069;-80
2022/09/03 01:50:13;;;;;;;2.28;1.10;;;16.30;95.30;;;;;;5038996;28;20129;-78
2022/09/03 01:52:54;;;;;;;2.53;1.02;;;16.30;95.50;;;;;;5072543;28;20495;-78
2022/09/03 01:55:45;;;;;;;4.72;1.10;;;16.30;95.40;;;;;;5038911;28;20042;-79
2022/09/03 01:58:22;;;;;;;3.53;0.80;;;16.20;95.70;;;;;;5022062;28;20055;-78
2022/09/03 02:01:04;;;;;;;3.88;0.90;;;16.20;95.50;;;;;;5039345;28;20054;-78
2022/09/03 02:03:39;;;;;;;3.65;1.05;;;16.20;95.50;;;;;;5038581;28;20081;-79
2022/09/03 02:06:07;;;;;;;3.78;0.73;;;16.20;95.50;;;;;;5072100;28;20043;-79
2022/09/03 02:08:33;;;;;;;1.88;0.60;;;16.10;95.60;;;;;;5038566;28;20049;-78
2022/09/03 02:11:01;;;;;;;2.38;0.90;;;16.10;95.90;;;;;;5022033;28;20487;-78
2022/09/03 02:13:33;;;;;;;2.85;0.98;;;16.10;95.70;;;;;;5021705;28;20051;-79
2022/09/03 02:16:08;;;;;;;2.47;0.70;;;16.00;95.90;;;;;;5038846;28;20078;-79
2022/09/03 02:18:47;;;;;;;1.70;0.80;;;16.00;96.00;;;;;;5071787;28;20063;-79
2022/09/03 02:21:18;;;;;;;3.85;0.93;;;16.00;96.00;;;;;;5038272;28;20047;-79
2022/09/03 02:23:44;;;;;;;1.52;0.73;;;15.90;96.30;;;;;;5038722;28;20491;-79
2022/09/03 02:26:13;;;;;;;2.00;0.70;;;15.90;96.20;;;;;;5021736;28;20045;-79
2022/09/03 02:28:39;;;;;;;1.52;0.70;;;15.90;96.20;;;;;;5038179;28;20042;-79
2022/09/03 02:31:05;;;;;;;2.15;0.90;;;15.90;96.50;;;;;;5038155;28;20042;-79
2022/09/03 02:33:36;;;;;;;1.33;0.60;;;15.80;96.50;;;;;;5038675;28;20523;-79
2022/09/03 02:36:05;;;;;;;3.97;0.95;;;15.80;96.60;;;;;;5021488;28;20039;-79
2022/09/03 02:38:31;;;;;;;3.65;0.82;;;15.80;96.50;;;;;;5021822;28;20446;-79
2022/09/03 02:40:57;;;;;;;2.50;0.95;;;15.80;96.50;;;;;;5055432;28;20061;-79
2022/09/03 02:43:31;;;;;;;3.25;0.88;;;15.80;96.50;;;;;;5037830;28;20090;-79
2022/09/03 02:46:02;;;;;;;1.80;0.80;;;15.80;96.70;;;;;;5038443;28;20124;-79
2022/09/03 02:48:28;;;;;;;2.03;0.82;;;15.70;96.60;;;;;;5037921;28;20065;-80
2022/09/03 02:50:54;;;;;;;3.35;0.90;;;15.70;96.60;;;;;;5037961;28;20491;-77
2022/09/03 02:53:20;;;;;;;3.40;0.95;;;15.70;97.00;;;;;;5021118;28;20503;-78
2022/09/03 02:55:46;;;;;;;2.70;0.88;;;15.70;96.70;;;;;;5037609;28;20069;-78
2022/09/03 02:58:12;;;;;;;1.00;0.70;;;15.70;96.80;;;;;;5054711;28;20047;-79
2022/09/03 03:00:38;;;;;;;1.75;0.70;;;15.60;96.70;;;;;;5021491;28;20050;-79
2022/09/03 03:03:05;;;;;;;1.08;0.60;;;15.60;96.90;;;;;;5038437;28;20057;-78
2022/09/03 03:05:49;;;;;;;1.17;0.60;;;15.60;97.30;;;;;;5005019;28;20062;-78
2022/09/03 03:08:19;;;;;;;3.05;0.77;;;15.60;97.10;;;;;;5037612;28;20043;-78
2022/09/03 03:10:46;;;;;;;4.28;0.90;;;15.60;97.20;;;;;;5021472;28;20129;-78
2022/09/03 03:13:12;;;;;;;;;;;15.60;97.10;;;;;;5021714;28;20042;-79
2022/09/03 03:15:37;;;;;;;2.58;0.80;;;15.60;97.30;;;;;;5070965;28;20508;-79
2022/09/03 03:18:06;;;;;;;2.78;1.10;;;15.60;97.40;;;;;;5037789;28;20401;-79
2022/09/03 03:20:33;;;;;;;2.85;0.80;;;15.50;97.40;;;;;;5037831;28;20089;-79
2022/09/03 03:23:03;;;;;;;;;;;15.60;97.50;;;;;;5021483;28;20146;-79
2022/09/03 03:25:31;;;;;;;2.88;0.80;;;15.60;97.50;;;;;;5074870;28;19918;-79
2022/09/03 03:27:57;;;;;;;2.97;0.93;;;15.50;97.40;;;;;;5041455;28;20059;-78
2022/09/03 03:30:22;;;;;;;3.07;0.70;;;15.60;97.60;;;;;;5041529;28;20583;-78
2022/09/03 03:32:48;;;;;;;7.57;1.13;;;15.50;97.70;;;;;;5041669;28;20635;-78
2022/09/03 03:35:14;;;;;;;2.47;0.70;;;15.50;97.60;;;;;;5041149;28;20069;-78
2022/09/03 03:37:40;;;;;;;2.08;0.82;;;15.60;97.50;;;;;;5041478;28;20428;-79
2022/09/03 03:40:06;;;;;;;2.83;1.20;;;15.50;97.60;;;;;;5008319;28;20046;-80
2022/09/03 03:42:35;;;;;;;3.45;0.90;;;15.50;97.60;;;;;;5025333;28;20286;-79
2022/09/03 03:45:01;;;;;;;1.67;1.00;;;15.50;97.60;;;;;;5041168;28;20104;-79
2022/09/03 03:47:30;;;;;;;3.53;0.93;;;15.50;97.50;;;;;;5041340;28;20043;-79
2022/09/03 03:49:57;;;;;;;2.53;1.02;;;15.50;97.90;;;;;;5041661;28;20078;-79
2022/09/03 03:52:24;;;;;;;1.55;0.80;;;15.50;97.80;;;;;;4974009;28;20369;-79
2022/09/03 03:54:50;;;;;;;1.25;0.93;;;15.50;97.90;;;;;;5025019;28;20546;-80
2022/09/03 03:57:16;;;;;;;;;;;15.40;98.00;;;;;;5041716;28;20046;-79
2022/09/03 03:59:42;;;;;;;6.15;1.20;;;15.50;98.10;;;;;;5024223;28;19967;-79
2022/09/03 04:02:07;;;;;;;1.88;0.90;;;15.50;98.20;;;;;;5041542;28;20415;-80
2022/09/03 04:04:33;;;;;;;3.75;1.05;;;15.40;98.00;;;;;;5024432;28;20043;-79
2022/09/03 04:06:59;;;;;;;1.75;1.20;;;15.50;98.00;;;;;;5024208;28;20510;-78
2022/09/03 04:09:24;;;;;;;1.47;1.07;;;15.40;98.30;;;;;;5040914;28;20042;-78
2022/09/03 04:11:50;;;;;;;2.90;1.30;;;15.40;98.40;;;;;;5040729;28;20331;-78
2022/09/03 04:14:19;;;;;;;2.77;1.03;;;15.40;98.40;;;;;;5040670;28;20290;-79
2022/09/03 04:16:47;;;;;;;1.45;1.05;;;15.40;98.30;;;;;;5040488;28;20290;-79
2022/09/03 04:19:13;;;;;;;1.75;1.10;;;15.40;98.50;;;;;;5024296;28;20047;-79
2022/09/03 04:21:39;;;;;;;7.40;1.52;;;15.40;98.40;;;;;;5024166;28;20042;-79
2022/09/03 04:24:05;;;;;;;1.70;1.00;;;15.40;98.60;;;;;;5023941;28;20126;-78
2022/09/03 04:26:32;;;;;;;2.97;1.38;;;15.40;98.30;;;;;;5040489;28;20035;-79
2022/09/03 04:29:02;;;;;;;2.83;1.10;;;15.40;98.70;;;;;;5040355;28;20047;-78
2022/09/03 04:31:28;;;;;;;2.33;1.10;;;15.30;98.60;;;;;;5040956;28;20411;-79
2022/09/03 04:33:54;;;;;;;1.63;1.13;;;15.30;98.70;;;;;;5023782;28;20044;-79
2022/09/03 04:36:23;;;;;;;4.55;1.30;;;15.30;98.70;;;;;;5023162;28;20046;-79
2022/09/03 04:38:53;;;;;;;2.45;1.20;;;15.30;98.90;;;;;;5040644;28;20054;-79
2022/09/03 04:41:27;;;;;;;3.42;1.40;;;15.30;98.80;;;;;;5023595;28;20121;-79
2022/09/03 04:43:54;;;;;;;3.10;1.25;;;15.20;99.00;;;;;;5023317;28;20050;-79
2022/09/03 04:46:22;;;;;;;2.03;1.30;;;15.20;99.10;;;;;;5040371;28;20043;-79
2022/09/03 04:48:50;;;;;;;4.07;1.40;;;15.20;99.40;;;;;;5040084;28;20519;-80
2022/09/03 04:51:22;;;;;;;2.92;1.17;;;15.20;99.00;;;;;;5040397;28;20049;-79
2022/09/03 04:53:52;;;;;;;3.70;1.50;;;15.20;99.40;;;;;;5040145;28;20122;-80
2022/09/03 04:56:24;;;;;;;3.05;1.30;;;15.10;99.30;;;;;;5039952;28;20050;-79
2022/09/03 04:58:58;;;;;;;6.32;1.33;;;15.10;99.40;;;;;;5040427;28;20484;-79
2022/09/03 05:01:26;;;;;;;4.85;1.48;;;15.10;99.60;;;;;;5039893;28;20102;-79
2022/09/03 05:03:52;;;;;;;2.78;1.30;;;15.00;99.50;;;;;;5040294;28;20393;-79
2022/09/03 05:06:18;;;;;;;2.65;1.13;;;15.00;99.80;;;;;;5040056;28;20072;-79
2022/09/03 05:08:48;;;;;;;2.10;1.33;;;15.00;99.80;;;;;;5040165;28;20042;-79
2022/09/03 05:11:15;;;;;;;2.17;1.40;;;15.00;99.80;;;;;;5040305;28;20042;-79
2022/09/03 05:13:41;;;;;;;3.42;1.40;;;14.90;99.90;;;;;;5039810;28;20046;-79
2022/09/03 05:16:09;;;;;;;2.53;1.40;;;14.90;99.90;;;;;;5039976;28;20089;-80
2022/09/03 05:18:35;;;;;;;4.47;1.52;;;14.90;99.90;;;;;;5022888;28;20063;-79
2022/09/03 05:21:03;;;;;;;2.53;1.10;;;14.90;99.90;;;;;;5040064;28;20484;-79
2022/09/03 05:23:29;;;;;;;6.43;1.30;;;14.90;99.90;;;;;;5039761;28;20043;-79
2022/09/03 05:26:02;;;;;;;;;;;15.00;99.90;;;;;;5040038;28;20092;-78
2022/09/03 05:28:29;;;;;;;2.15;1.27;;;15.00;99.90;;;;;;5022683;28;19925;-78
2022/09/03 05:31:07;;;;;;;2.00;1.30;;;15.00;99.90;;;;;;5022986;28;20051;-78
2022/09/03 05:33:43;;;;;;;2.78;1.33;;;15.00;99.90;;;;;;5039468;28;20049;-78
2022/09/03 05:36:15;;;;;;;3.10;1.38;;;15.00;99.90;;;;;;5022993;28;20047;-78
2022/09/03 05:38:41;;;;;;;2.67;1.40;;;15.00;99.90;;;;;;5039826;28;20125;-79
2022/09/03 05:41:09;;;;;;;2.42;1.30;;;15.10;99.90;;;;;;5039667;28;20054;-78
2022/09/03 05:43:35;;;;;;;3.40;1.35;;;15.10;99.90;;;;;;5039143;28;20506;-80
2022/09/03 05:46:10;;;;;;;3.15;1.48;;;15.10;99.90;;;;;;5022433;28;20043;-79
2022/09/03 05:48:37;;;;;;;2.80;1.10;;;15.20;99.90;;;;;;5038188;28;20093;-78
2022/09/03 05:51:06;;;;;;;2.17;1.40;;;15.20;99.90;;;;;;5039566;28;20572;-78
2022/09/03 05:53:34;;;;;;;1.83;1.05;;;15.20;99.90;;;;;;5022246;28;20043;-79
2022/09/03 05:56:01;;;;;;;2.63;1.33;;;15.20;99.90;;;;;;5039008;28;20108;-79
2022/09/03 05:58:34;;;;;;;2.20;1.40;;;15.30;99.90;;;;;;5039554;28;20073;-79
2022/09/03 06:01:13;;;;;;;1.88;1.30;;;15.30;99.90;;;;;;5039361;28;20108;-79
2022/09/03 06:03:40;;;;;;;2.45;1.20;;;15.30;99.90;;;;;;5073021;28;20100;-79
2022/09/03 06:06:06;;;;;;;3.97;1.48;;;15.30;99.90;;;;;;5038829;28;20519;-78
2022/09/03 06:08:33;;;;;;;3.25;1.65;;;15.40;99.90;;;;;;5022575;28;20058;-79
2022/09/03 06:10:59;;;;;;;3.40;1.40;;;15.40;99.90;;;;;;5022188;28;20129;-77
2022/09/03 06:13:25;;;;;;;3.85;1.20;;;15.40;99.90;;;;;;5022039;28;20043;-79
2022/09/03 06:15:59;;;;;;;1.90;1.30;;;15.50;99.90;;;;;;5038526;28;20046;-78
2022/09/03 06:18:26;;;;;;;4.03;1.20;;;15.40;99.90;;;;;;5038191;28;20059;-79
2022/09/03 06:21:00;;;;;;;4.47;1.65;;;15.50;99.90;;;;;;5039078;28;20047;-78
2022/09/03 06:23:26;;;;;;;1.92;1.25;;;15.50;99.90;;;;;;5038766;28;20456;-78
2022/09/03 06:26:07;;;;;;;3.70;1.60;;;15.60;99.90;;;;;;5072057;28;20049;-78
2022/09/03 06:28:34;;;;;;;2.63;1.55;;;15.70;99.80;;;;;;5038985;28;20545;-78
2022/09/03 06:31:02;;;;;;;4.13;1.60;;;15.80;99.90;;;;;;5021941;28;20041;-79
2022/09/03 06:33:32;;;;;;;2.22;1.40;;;15.90;99.70;;;;;;5038185;28;20133;-79
2022/09/03 06:35:59;;;;;;;3.90;1.50;;;16.00;99.50;;;;;;5006055;28;20176;-80
2022/09/03 06:38:27;;;;;;;2.35;1.40;;;16.10;99.40;;;;;;5022465;28;20500;-79
2022/09/03 06:41:00;;;;;;;1.95;1.45;;;16.20;99.30;;;;;;5038339;28;20051;-79
2022/09/03 06:43:28;;;;;;;2.47;1.50;;;16.30;99.00;;;;;;5038513;28;20363;-79
2022/09/03 06:45:54;;;;;;;2.97;1.40;;;16.40;99.10;;;;;;5037958;28;20068;-79
2022/09/03 06:48:20;;;;;;;2.67;1.13;;;16.50;99.20;;;;;;5021734;28;20047;-79
2022/09/03 06:50:58;;;;;;;3.28;1.30;;;16.60;98.90;;;;;;5038419;28;20039;-79
2022/09/03 06:53:29;;;;;;;2.75;1.50;;;16.80;98.70;;;;;;5021382;28;20039;-79
2022/09/03 06:56:00;;;;;;;1.85;1.13;;;17.10;98.50;;;;;;5038028;28;20035;-79
2022/09/03 06:58:32;;;;;;;2.20;1.20;;;17.60;97.80;;;;;;5037365;28;20038;-79
2022/09/03 07:01:02;;;;;;;2.50;1.20;;;18.00;96.80;;;;;;5037884;28;20042;-79
2022/09/03 07:03:28;;;;;;;1.98;1.17;;;18.60;96.20;;;;;;5038216;28;20469;-79
2022/09/03 07:06:00;;;;;;;4.10;1.33;;;18.70;95.70;;;;;;5021676;28;20530;-78
2022/09/03 07:08:26;;;;;;;4.82;1.15;;;19.10;95.40;;;;;;5038229;28;20446;-79
2022/09/03 07:10:52;;;;;;;4.25;1.52;;;19.30;94.70;;;;;;5037943;28;20051;-79
2022/09/03 07:13:17;;;;;;;4.05;1.35;;;19.40;94.70;;;;;;5021340;28;20492;-79
2022/09/03 07:15:43;;;;;;;3.22;1.20;;;19.60;94.60;;;;;;5021288;28;20552;-79
2022/09/03 07:18:09;;;;;;;5.05;1.42;;;19.70;94.40;;;;;;5020832;28;20055;-79
2022/09/03 07:20:36;;;;;;;4.68;1.23;;;19.90;94.30;;;;;;5005246;28;20104;-79
2022/09/03 07:23:02;;;;;;;2.90;0.98;;;20.00;93.80;;;;;;5021253;28;20051;-79
2022/09/03 07:25:30;;;;;;;3.67;1.02;;;20.20;93.90;;;;;;5037992;28;20053;-79
2022/09/03 07:27:57;;;;;;;3.00;1.08;;;20.50;93.70;;;;;;5037463;28;20054;-79
2022/09/03 07:30:25;;;;;;;3.25;1.30;;;20.60;93.10;;;;;;5037713;28;20047;-79
2022/09/03 07:32:52;;;;;;;3.25;1.08;;;20.60;93.20;;;;;;5037606;28;20038;-79
2022/09/03 07:35:18;;;;;;;3.72;1.20;;;20.70;93.00;;;;;;5037857;28;20042;-79
2022/09/03 07:37:44;;;;;;;3.10;1.27;;;21.00;93.60;;;;;;5021298;28;20091;-80
2022/09/03 07:40:10;;;;;;;2.42;1.10;;;21.10;93.00;;;;;;5038115;28;20145;-80
2022/09/03 07:42:40;;;;;;;2.95;0.93;;;21.20;92.80;;;;;;5037566;28;20039;-79
2022/09/03 07:45:09;;;;;;;2.80;0.93;;;21.30;92.80;;;;;;5037706;28;20054;-79
2022/09/03 07:47:36;;;;;;;1.85;0.90;;;21.60;92.90;;;;;;5021220;28;20559;-80
2022/09/03 07:50:02;;;;;;;2.80;1.00;;;21.90;92.40;;;;;;5037851;28;20121;-80
2022/09/03 07:52:28;;;;;;;5.80;1.10;;;22.00;92.40;;;;;;5037819;28;20062;-80
2022/09/03 07:54:54;;;;;;;1.55;0.70;;;22.40;91.90;;;;;;5037568;28;20039;-80
2022/09/03 07:57:19;;;;;;;4.18;1.00;;;22.50;92.20;;;;;;5021625;28;20045;-80
2022/09/03 07:59:45;;;;;;;3.13;0.98;;;22.70;91.90;;;;;;5037720;28;20051;-80
2022/09/03 08:02:11;;;;;;;3.25;1.00;;;23.10;91.70;;;;;;5021006;28;20053;-80
2022/09/03 08:04:37;;;;;;;1.08;0.82;;;23.20;91.20;;;;;;5020892;28;20093;-79
2022/09/03 08:07:03;;;;;;;3.58;0.90;;;23.20;91.10;;;;;;5020993;28;20047;-79
2022/09/03 08:09:28;;;;;;;;;;;23.00;91.00;;;;;;5037854;28;20133;-79
2022/09/03 08:11:54;;;;;;;2.80;0.90;;;23.00;91.10;;;;;;5040412;28;19918;-80
2022/09/03 08:14:20;;;;;;;2.83;0.65;;;23.40;91.20;;;;;;5024831;28;20078;-80
2022/09/03 08:16:49;;;;;;;4.30;0.80;;;23.50;90.40;;;;;;5040987;28;20396;-79
2022/09/03 08:19:17;;;;;;;1.15;0.85;;;23.60;90.60;;;;;;5024469;28;20424;-79
2022/09/03 08:21:43;;;;;;;4.60;0.90;;;23.70;90.40;;;;;;5040699;28;20100;-79
2022/09/03 08:24:10;;;;;;;;;;;24.00;90.50;;;;;;5024448;28;20127;-79
2022/09/03 08:26:40;;;;;;;8.63;0.90;;;23.90;90.00;;;;;;5024287;28;19918;-79
2022/09/03 08:29:06;;;;;;;5.70;0.80;;;24.10;90.40;;;;;;5040956;28;20100;-80
2022/09/03 08:31:32;;;;;;;;;;;24.50;90.40;;;;;;5040939;28;20039;-79
2022/09/03 08:34:05;;;;;;;4.35;0.90;;;24.50;89.60;;;;;;5024635;28;19922;-79
2022/09/03 08:36:36;;;;;;;2.45;0.70;;;24.80;90.20;;;;;;5040498;28;20125;-80
2022/09/03 08:39:08;;;;;;;3.20;0.90;;;24.90;89.80;;;;;;5057096;28;20043;-79
2022/09/03 08:41:52;;;;;;;3.15;0.80;;;24.90;89.40;;;;;;5007498;28;20058;-80
2022/09/03 08:44:27;;;;;;;3.15;1.10;;;25.20;89.40;;;;;;5040293;28;20062;-80
2022/09/03 08:46:57;;;;;;;3.05;0.88;;;25.60;89.30;;;;;;5023727;28;20400;-80
2022/09/03 08:49:47;;;;;;;2.33;0.80;;;25.50;87.70;;;;;;5040561;28;20042;-80
2022/09/03 08:52:37;;;;;;;3.25;0.95;;;25.50;87.70;;;;;;5040187;28;20121;-80
2022/09/03 08:55:17;;;;;;;2.67;0.93;;;25.60;87.70;;;;;;5031133;28;20104;-79
2022/09/03 08:57:47;;;;;;;2.85;0.77;;;25.90;87.80;;;;;;5039931;28;20121;-80
2022/09/03 09:00:14;;;;;;;3.72;0.80;;;26.00;87.60;;;;;;5040179;28;20043;-80
2022/09/03 09:02:51;;;;;;;2.15;1.10;;;26.00;87.60;;;;;;5039978;28;20039;-80
2022/09/03 09:05:42;;;;;;;2.10;0.93;;;25.90;87.50;;;;;;5023368;28;20034;-79
2022/09/03 09:08:16;;;;;;;4.85;0.85;;;25.70;87.70;;;;;;5031140;28;20062;-80
2022/09/03 09:11:01;;;;;;;6.10;0.80;;;25.80;87.80;;;;;;5039541;28;20054;-80
2022/09/03 09:13:48;;;;;;;1.23;0.70;;;25.80;87.10;;;;;;5040071;28;20493;-79
2022/09/03 09:16:26;;;;;;;;;;;25.60;87.50;;;;;;5040570;28;20049;-79
2022/09/03 09:19:10;;;;;;;1.55;0.70;;;25.90;88.00;;;;;;5086580;28;19968;-80
2022/09/03 09:21:50;;;;;;;2.10;0.90;;;26.30;87.50;;;;;;5053027;28;20091;-81
2022/09/03 09:24:25;;;;;;;2.40;0.70;;;26.20;86.70;;;;;;5053482;28;20080;-80
2022/09/03 09:27:04;;;;;;;4.40;0.88;;;26.40;87.00;;;;;;5053022;28;20141;-81
2022/09/03 09:29:33;;;;;;;3.35;0.93;;;26.80;86.40;;;;;;5053476;28;20041;-81
2022/09/03 09:31:59;;;;;;;4.10;0.88;;;27.40;85.80;;;;;;5053307;28;20045;-81
2022/09/03 09:34:26;;;;;;;4.35;0.70;;;27.70;86.10;;;;;;5019864;28;20419;-80
2022/09/03 09:36:54;;;;;;;4.97;0.95;;;27.70;85.70;;;;;;5036656;28;20461;-80
2022/09/03 09:39:20;;;;;;;2.55;0.90;;;27.70;85.30;;;;;;5052953;28;20045;-81
2022/09/03 09:42:08;;;;;;;1.60;0.90;;;27.60;85.80;;;;;;5053048;28;20102;-80
2022/09/03 09:44:42;;;;;;;2.35;0.70;;;27.80;85.20;;;;;;5053245;28;20049;-81
2022/09/03 09:47:25;;;;;;;3.40;1.10;;;28.00;85.10;;;;;;5052555;28;20041;-80
2022/09/03 09:49:54;;;;;;;2.42;0.90;;;27.70;85.40;;;;;;5036417;28;20049;-81
2022/09/03 09:52:24;;;;;;;4.70;0.98;;;27.80;85.30;;;;;;5052454;28;20085;-80
2022/09/03 09:54:52;;;;;;;2.38;0.60;;;28.10;85.00;;;;;;5052574;28;20056;-81
2022/09/03 09:57:24;;;;;;;2.45;0.80;;;28.20;84.80;;;;;;5052678;28;20549;-80
2022/09/03 10:00:07;;;;;;;1.67;0.50;;;28.80;84.50;;;;;;5052371;28;20048;-80
2022/09/03 10:02:35;;;;;;;1.88;0.73;;;29.20;83.90;;;;;;5052317;28;20045;-81
2022/09/03 10:05:26;;;;;;;2.55;0.50;;;29.40;83.40;;;;;;5052412;28;20106;-81
2022/09/03 10:08:00;;;;;;;3.80;0.77;;;29.20;83.60;;;;;;5035568;28;20114;-81
2022/09/03 10:10:27;;;;;;;6.35;0.93;;;29.20;84.10;;;;;;5035924;28;20094;-81
2022/09/03 10:13:01;;;;;;;3.00;0.60;;;29.60;83.70;;;;;;5069056;28;20110;-81
2022/09/03 10:15:49;;;;;;;4.43;0.85;;;29.80;82.70;;;;;;5052266;28;20036;-81
2022/09/03 10:18:27;;;;;;;4.35;0.55;;;29.90;82.50;;;;;;5085749;28;20516;-81
2022/09/03 10:21:11;;;;;;;5.03;0.50;;;29.70;82.80;;;;;;5052446;28;20386;-81
2022/09/03 10:23:49;;;;;;;2.58;0.65;;;29.80;82.20;;;;;;5052314;28;20041;-81
2022/09/03 10:26:28;;;;;;;1.20;0.80;;;29.80;82.50;;;;;;5051998;28;20041;-82
2022/09/03 10:28:58;;;;;;;3.13;0.73;;;30.10;82.60;;;;;;5052314;28;20053;-81
2022/09/03 10:31:35;;;;;;;5.65;0.80;;;30.30;81.50;;;;;;5052356;28;20417;-82
2022/09/03 10:34:39;;;;;;;3.70;0.88;;;30.50;81.90;;;;;;5051617;28;20040;-82
2022/09/03 10:37:14;;;;;;;3.80;0.70;;;30.50;81.70;;;;;;5052489;28;20044;-82
2022/09/03 10:40:08;;;;;;;1.70;0.47;;;31.00;81.50;;;;;;5052164;28;20041;-80
2022/09/03 10:42:51;;;;;;;3.00;0.60;;;31.10;80.90;;;;;;5045771;28;20045;-80
2022/09/03 10:45:38;;;;;;;2.13;0.45;;;30.70;80.60;;;;;;5051788;28;20041;-80
2022/09/03 10:48:17;;;;;;;4.07;0.52;;;30.50;79.70;;;;;;5035464;28;20044;-80
2022/09/03 10:50:52;;;;;;;3.72;0.70;;;30.60;79.40;;;;;;5052134;28;20036;-81
2022/09/03 10:53:58;;;;;;;3.28;0.60;;;30.60;79.60;;;;;;5051797;28;20044;-80
2022/09/03 10:56:41;;;;;;;1.35;0.50;;;31.00;78.80;;;;;;4999810;28;20420;-80
2022/09/03 10:59:32;;;;;;;4.05;0.70;;;30.90;78.60;;;;;;5034897;28;20072;-80
2022/09/03 11:02:14;;;;;;;1.30;0.50;;;31.20;79.20;;;;;;5035009;28;20053;-80
2022/09/03 11:04:50;;;;;;;1.65;0.50;;;31.60;79.50;;;;;;5052113;28;20049;-80
2022/09/03 11:07:21;;;;;;;1.98;0.47;;;31.80;78.90;;;;;;5051598;28;20524;-80
2022/09/03 11:10:14;;;;;;;4.22;0.60;;;31.40;78.20;;;;;;5085322;28;20037;-80
2022/09/03 11:12:49;;;;;;;3.28;0.70;;;31.30;77.90;;;;;;5051185;28;20048;-80
2022/09/03 11:15:24;;;;;;;2.50;0.68;;;31.10;78.10;;;;;;5051529;28;20041;-80
2022/09/03 11:17:57;;;;;;;5.18;0.80;;;31.30;77.80;;;;;;5034835;28;20569;-80
2022/09/03 11:20:25;;;;;;;4.90;0.60;;;30.90;77.30;;;;;;5051673;28;20578;-80
2022/09/03 11:22:58;;;;;;;2.35;0.60;;;31.30;77.50;;;;;;5051527;28;20052;-80
2022/09/03 11:25:39;;;;;;;2.08;0.50;;;31.30;77.10;;;;;;5035058;28;20110;-80
2022/09/03 11:28:30;;;;;;;2.65;0.60;;;31.60;77.20;;;;;;5051310;28;20044;-80
2022/09/03 11:31:34;;;;;;;2.80;0.60;;;31.80;77.60;;;;;;5051277;28;20037;-81
2022/09/03 11:34:12;;;;;;;2.85;0.65;;;31.60;77.60;;;;;;5034523;28;20048;-81
2022/09/03 11:36:39;;;;;;;2.55;0.40;;;32.00;76.70;;;;;;5051230;28;20049;-82
2022/09/03 11:39:32;;;;;;;1.35;0.40;;;32.30;77.00;;;;;;5034732;28;20037;-82
2022/09/03 11:42:29;;;;;;;2.45;0.60;;;32.80;75.80;;;;;;5051249;28;20055;-81
2022/09/03 11:45:11;;;;;;;3.70;0.50;;;32.70;75.60;;;;;;5032318;28;20053;-81
2022/09/03 11:47:42;;;;;;;1.42;0.60;;;32.50;75.20;;;;;;5088629;28;20040;-82
2022/09/03 11:50:31;;;;;;;3.08;0.50;;;32.60;75.90;;;;;;5055311;28;20498;-82
2022/09/03 11:53:33;;;;;;;2.65;0.50;;;32.70;75.00;;;;;;5088560;28;20072;-82
2022/09/03 11:56:20;;;;;;;3.40;0.35;;;32.60;74.80;;;;;;5023365;28;20052;-82
2022/09/03 11:58:46;;;;;;;2.33;0.50;;;32.90;74.90;;;;;;5021698;28;20044;-82
2022/09/03 12:01:14;;;;;;;1.17;0.50;;;32.90;75.00;;;;;;5038042;28;20081;-82
2022/09/03 12:03:52;;;;;;;3.17;0.60;;;33.00;74.00;;;;;;5054737;28;20060;-82
2022/09/03 12:06:30;;;;;;;2.30;0.55;;;33.10;73.70;;;;;;5054944;28;20048;-82
2022/09/03 12:09:23;;;;;;;1.10;0.60;;;33.20;73.80;;;;;;5054580;28;20490;-82
2022/09/03 12:12:33;;;;;;;2.65;0.60;;;33.10;73.90;;;;;;5054435;28;20065;-82
2022/09/03 12:15:53;;;;;;;6.45;0.70;;;33.50;74.00;;;;;;5002571;28;20061;-82
2022/09/03 12:18:29;;;;;;;1.83;0.50;;;33.00;73.30;;;;;;4997261;28;20054;-82
2022/09/03 12:20:56;;;;;;;2.95;0.65;;;33.20;73.40;;;;;;5046235;28;20057;-82
2022/09/03 12:23:34;;;;;;;2.70;0.60;;;32.90;73.60;;;;;;5037906;28;20582;-82
2022/09/03 12:26:06;;;;;;;1.42;0.40;;;32.90;73.10;;;;;;5037878;28;20438;-83
2022/09/03 12:28:38;;;;;;;4.32;0.50;;;33.10;73.10;;;;;;5037795;28;20095;-82
2022/09/03 12:31:28;;;;;;;4.28;0.70;;;33.00;73.50;;;;;;5037807;28;20040;-82
2022/09/03 12:33:58;;;;;;;2.13;0.40;;;33.20;74.00;;;;;;5054306;28;20064;-82
2022/09/03 12:36:34;;;;;;;1.52;0.38;;;33.10;72.40;;;;;;5054119;28;20076;-82
2022/09/03 12:39:15;;;;;;;2.90;0.57;;;32.90;73.10;;;;;;5054323;28;20514;-83
2022/09/03 12:42:13;;;;;;;1.73;0.50;;;32.90;72.80;;;;;;5054188;28;20090;-82
2022/09/03 12:44:40;;;;;;;3.00;0.35;;;33.10;72.60;;;;;;5037234;28;20095;-82
2022/09/03 12:47:16;;;;;;;4.20;0.50;;;33.40;73.20;;;;;;5053988;28;20073;-82
2022/09/03 12:49:44;;;;;;;4.40;0.52;;;33.10;72.90;;;;;;5054037;28;20044;-82
2022/09/03 12:52:19;;;;;;;1.77;0.40;;;32.80;73.10;;;;;;5054039;28;20041;-82
2022/09/03 12:55:17;;;;;;;3.90;0.60;;;32.40;72.80;;;;;;5054015;28;20041;-82
2022/09/03 12:57:51;;;;;;;1.55;0.45;;;32.10;72.50;;;;;;5036728;28;20506;-82
2022/09/03 13:00:18;;;;;;;4.10;0.65;;;32.60;73.50;;;;;;5053653;28;20037;-82
2022/09/03 13:03:27;;;;;;;1.00;0.50;;;32.70;73.60;;;;;;5037453;28;20052;-81
2022/09/03 13:06:08;;;;;;;1.35;0.40;;;33.20;73.30;;;;;;5024884;28;20044;-81
2022/09/03 13:09:14;;;;;;;1.52;0.60;;;33.00;72.70;;;;;;5053560;28;20053;-81
2022/09/03 13:11:43;;;;;;;1.40;0.40;;;32.90;72.50;;;;;;5050245;28;20049;-81
2022/09/03 13:14:11;;;;;;;4.95;0.55;;;33.40;73.00;;;;;;5053422;28;20048;-81
2022/09/03 13:16:37;;;;;;;2.65;0.30;;;33.20;72.40;;;;;;5052560;28;20394;-82
2022/09/03 13:19:09;;;;;;;3.63;0.70;;;33.10;72.90;;;;;;5039512;28;20051;-82
2022/09/03 13:21:53;;;;;;;1.38;0.47;;;33.20;72.40;;;;;;5023194;28;20458;-81
2022/09/03 13:24:37;;;;;;;3.20;0.55;;;33.30;72.10;;;;;;5039662;28;20109;-82
2022/09/03 13:27:24;;;;;;;1.30;0.40;;;33.30;72.80;;;;;;5023393;28;20492;-82